Time;durP1;ratioP1;P1;durP2;ratioP2;P2;SDS_P1;SDS_P2;PMS_P1;PMS_P2;Temp;Humidity;BMP_temperature;BMP_pressure;BME280_temperature;BME280_humidity;BME280_pressure;Samples;Min_cycle;Max_cycle;Signal;HPM_P1;HPM_P2
2022/09/17 00:00:23;;;;;;;1.17;0.20;;;11.70;80.20;;;;;;4880401;29;20071;-77
2022/09/17 00:02:54;;;;;;;0.45;0.20;;;11.70;80.20;;;;;;4897088;29;20043;-77
2022/09/17 00:05:22;;;;;;;0.20;0.20;;;11.80;80.20;;;;;;4896456;29;20033;-77
2022/09/17 00:07:49;;;;;;;0.52;0.10;;;11.90;80.10;;;;;;4880104;29;20037;-77
2022/09/17 00:10:14;;;;;;;1.58;0.20;;;11.80;80.00;;;;;;4897104;29;20095;-77
2022/09/17 00:12:40;;;;;;;0.93;0.28;;;11.80;79.90;;;;;;4897112;29;20041;-77
2022/09/17 00:15:07;;;;;;;1.25;0.30;;;11.90;79.90;;;;;;4878992;29;20532;-77
2022/09/17 00:17:32;;;;;;;1.65;0.20;;;11.90;79.90;;;;;;4897063;29;20480;-77
2022/09/17 00:19:58;;;;;;;0.47;0.10;;;11.90;79.90;;;;;;4896602;29;20048;-77
2022/09/17 00:22:24;;;;;;;1.67;0.20;;;11.80;79.80;;;;;;4896265;29;20044;-77
2022/09/17 00:24:49;;;;;;;0.75;0.20;;;11.80;79.90;;;;;;4896149;29;20037;-77
2022/09/17 00:27:15;;;;;;;1.33;0.50;;;11.80;80.00;;;;;;4896376;29;20042;-77
2022/09/17 00:29:41;;;;;;;0.55;0.20;;;11.90;80.10;;;;;;4896363;29;20132;-77
2022/09/17 00:32:07;;;;;;;0.32;0.30;;;11.80;80.20;;;;;;4879525;29;20510;-77
2022/09/17 00:34:33;;;;;;;1.10;0.20;;;11.80;80.10;;;;;;4896480;29;20037;-78
2022/09/17 00:36:58;;;;;;;1.02;0.20;;;11.80;80.10;;;;;;4896145;29;20036;-77
2022/09/17 00:39:24;;;;;;;0.10;0.10;;;11.80;80.10;;;;;;4896325;29;20499;-77
2022/09/17 00:41:50;;;;;;;0.43;0.30;;;11.80;80.00;;;;;;4896186;29;20423;-77
2022/09/17 00:44:54;;;;;;;0.30;0.20;;;11.90;80.10;;;;;;4896261;29;20063;-77
2022/09/17 00:47:25;;;;;;;0.85;0.20;;;11.80;80.10;;;;;;4881984;29;20446;-77
2022/09/17 00:49:56;;;;;;;;;;;11.80;80.10;;;;;;4896461;29;20032;-77
2022/09/17 00:52:28;;;;;;;1.55;0.30;;;11.80;80.10;;;;;;4879148;29;19907;-77
2022/09/17 00:55:04;;;;;;;1.85;0.25;;;11.80;80.00;;;;;;4879421;29;20048;-77
2022/09/17 00:57:30;;;;;;;0.98;0.30;;;11.80;80.10;;;;;;4878890;29;20403;-77
2022/09/17 00:59:56;;;;;;;0.63;0.25;;;11.80;80.20;;;;;;4879066;29;20423;-77
2022/09/17 01:02:22;;;;;;;0.13;0.10;;;11.80;80.30;;;;;;4877739;29;20045;-77
2022/09/17 01:04:50;;;;;;;0.40;0.20;;;11.80;80.30;;;;;;4895728;29;20044;-77
2022/09/17 01:07:34;;;;;;;0.98;0.30;;;11.80;80.40;;;;;;4895744;29;20052;-77
2022/09/17 01:10:31;;;;;;;1.33;0.20;;;11.80;80.40;;;;;;4879040;29;20053;-77
2022/09/17 01:13:15;;;;;;;0.40;0.20;;;11.80;80.50;;;;;;4895688;29;20100;-77
2022/09/17 01:16:05;;;;;;;0.35;0.22;;;11.80;80.50;;;;;;4864519;29;20037;-77
2022/09/17 01:18:53;;;;;;;0.85;0.22;;;11.70;80.50;;;;;;4896103;29;20063;-77
2022/09/17 01:21:48;;;;;;;1.05;0.20;;;11.70;80.60;;;;;;4880855;29;20448;-77
2022/09/17 01:24:51;;;;;;;0.75;0.28;;;11.70;80.70;;;;;;4882282;29;20092;-77
2022/09/17 01:27:48;;;;;;;0.38;0.20;;;11.60;80.70;;;;;;4885380;29;20456;-77
2022/09/17 01:30:30;;;;;;;0.10;0.10;;;11.80;80.90;;;;;;4898195;29;20518;-77
2022/09/17 01:33:16;;;;;;;0.75;0.30;;;11.70;81.40;;;;;;4884186;29;20122;-77
2022/09/17 01:36:21;;;;;;;0.63;0.20;;;11.70;81.00;;;;;;4899114;29;20084;-77
2022/09/17 01:39:09;;;;;;;0.52;0.22;;;11.70;81.00;;;;;;4884614;29;20444;-77
2022/09/17 01:42:10;;;;;;;1.25;0.40;;;11.70;81.10;;;;;;4898512;29;20044;-77
2022/09/17 01:44:56;;;;;;;1.70;0.40;;;11.60;81.30;;;;;;4898515;29;20045;-77
2022/09/17 01:47:32;;;;;;;1.25;0.20;;;11.60;81.40;;;;;;4881762;29;20060;-77
2022/09/17 01:50:06;;;;;;;0.17;0.10;;;11.60;81.50;;;;;;4883452;29;20045;-77
2022/09/17 01:52:35;;;;;;;0.20;0.20;;;11.60;81.60;;;;;;4866106;29;20061;-77
2022/09/17 01:55:05;;;;;;;0.20;0.20;;;11.50;81.70;;;;;;4898714;29;20068;-77
2022/09/17 01:57:37;;;;;;;2.17;0.40;;;11.50;81.70;;;;;;4898707;29;20067;-77
2022/09/17 02:00:14;;;;;;;0.10;0.10;;;11.50;81.80;;;;;;4898815;29;20040;-77
2022/09/17 02:02:48;;;;;;;0.65;0.20;;;11.50;82.00;;;;;;4898241;29;20480;-77
2022/09/17 02:05:25;;;;;;;0.55;0.20;;;11.40;82.00;;;;;;4898253;29;20127;-77
2022/09/17 02:07:58;;;;;;;1.48;0.10;;;11.40;82.10;;;;;;4882123;29;20621;-77
2022/09/17 02:10:30;;;;;;;0.50;0.20;;;11.40;82.20;;;;;;4882121;29;20047;-77
2022/09/17 02:13:07;;;;;;;0.20;0.20;;;11.40;82.40;;;;;;4880085;29;20052;-77
2022/09/17 02:15:39;;;;;;;0.63;0.20;;;11.30;82.40;;;;;;4898333;29;20045;-77
2022/09/17 02:18:23;;;;;;;0.40;0.20;;;11.30;82.40;;;;;;4865497;29;20045;-77
2022/09/17 02:21:06;;;;;;;0.45;0.20;;;11.30;82.50;;;;;;4898057;29;20045;-76
2022/09/17 02:23:38;;;;;;;0.10;0.10;;;11.30;82.60;;;;;;4864843;29;20045;-77
2022/09/17 02:26:15;;;;;;;0.73;0.20;;;11.20;82.70;;;;;;4898224;29;20045;-77
2022/09/17 02:28:47;;;;;;;0.10;0.10;;;11.30;82.90;;;;;;4881322;29;20048;-76
2022/09/17 02:31:14;;;;;;;0.17;0.17;;;11.20;82.80;;;;;;4865469;29;20511;-77
2022/09/17 02:33:48;;;;;;;0.40;0.20;;;11.20;82.90;;;;;;4881293;29;20051;-77
2022/09/17 02:36:15;;;;;;;0.20;0.20;;;11.10;82.90;;;;;;4847102;29;20025;-77
2022/09/17 02:38:44;;;;;;;0.45;0.30;;;11.20;83.00;;;;;;4891268;29;20047;-77
2022/09/17 02:41:27;;;;;;;0.68;0.10;;;11.10;82.90;;;;;;4881075;29;20102;-77
2022/09/17 02:44:17;;;;;;;0.15;0.15;;;11.00;83.10;;;;;;4897688;29;20124;-77
2022/09/17 02:47:02;;;;;;;1.08;0.20;;;11.00;83.20;;;;;;4851314;29;20045;-77
2022/09/17 02:50:00;;;;;;;0.25;0.15;;;11.00;83.20;;;;;;4865388;29;20052;-77
2022/09/17 02:52:55;;;;;;;1.00;0.20;;;10.90;83.10;;;;;;4897722;29;20120;-78
2022/09/17 02:55:54;;;;;;;0.45;0.17;;;10.90;83.10;;;;;;4871114;29;20051;-77
2022/09/17 02:58:33;;;;;;;0.20;0.20;;;10.90;83.30;;;;;;4883656;29;20128;-77
2022/09/17 03:01:05;;;;;;;0.30;0.20;;;10.80;83.20;;;;;;4880624;29;20128;-77
2022/09/17 03:03:38;;;;;;;0.38;0.10;;;10.80;83.30;;;;;;4880558;29;20131;-77
2022/09/17 03:06:05;;;;;;;0.52;0.20;;;10.80;83.40;;;;;;4895512;29;20413;-77
2022/09/17 03:08:35;;;;;;;0.43;0.28;;;10.70;83.40;;;;;;4880698;29;20119;-77
2022/09/17 03:11:03;;;;;;;0.40;0.10;;;10.60;83.40;;;;;;4897400;29;20051;-77
2022/09/17 03:13:29;;;;;;;0.35;0.20;;;10.70;83.50;;;;;;4880623;29;20108;-77
2022/09/17 03:15:56;;;;;;;0.20;0.20;;;10.60;83.50;;;;;;4897231;29;20041;-77
2022/09/17 03:18:22;;;;;;;0.20;0.10;;;10.60;83.60;;;;;;4897211;29;20076;-77
2022/09/17 03:20:48;;;;;;;0.40;0.10;;;10.60;83.70;;;;;;4897465;29;20116;-77
2022/09/17 03:23:15;;;;;;;0.20;0.20;;;10.50;83.70;;;;;;4880331;29;20102;-77
2022/09/17 03:25:41;;;;;;;0.15;0.15;;;10.60;83.80;;;;;;4880971;29;20041;-78
2022/09/17 03:28:06;;;;;;;0.43;0.28;;;10.50;83.80;;;;;;4897886;29;20048;-77
2022/09/17 03:30:32;;;;;;;0.80;0.30;;;10.50;83.90;;;;;;4880894;29;20033;-77
2022/09/17 03:32:58;;;;;;;0.28;0.10;;;10.40;83.90;;;;;;4897536;29;20033;-77
2022/09/17 03:35:24;;;;;;;0.43;0.20;;;10.40;83.90;;;;;;4880935;29;20033;-77
2022/09/17 03:37:49;;;;;;;0.85;0.20;;;10.40;83.90;;;;;;4880751;29;20045;-77
2022/09/17 03:40:15;;;;;;;0.10;0.10;;;10.40;84.00;;;;;;4896926;29;20067;-77
2022/09/17 03:42:41;;;;;;;0.65;0.25;;;10.30;84.00;;;;;;4896992;29;20048;-77
2022/09/17 03:45:07;;;;;;;0.40;0.20;;;10.30;84.00;;;;;;4880795;29;20411;-77
2022/09/17 03:47:33;;;;;;;0.40;0.20;;;10.30;84.00;;;;;;4879936;29;20056;-77
2022/09/17 03:49:59;;;;;;;0.30;0.10;;;10.30;84.00;;;;;;4880131;29;20469;-77
2022/09/17 03:52:25;;;;;;;0.98;0.28;;;10.20;83.90;;;;;;4849139;29;20036;-77
2022/09/17 03:54:50;;;;;;;1.08;0.30;;;10.20;84.00;;;;;;4864368;29;20048;-77
2022/09/17 03:57:16;;;;;;;0.20;0.17;;;10.20;84.00;;;;;;4896609;29;20056;-77
2022/09/17 03:59:42;;;;;;;1.08;0.20;;;10.20;84.10;;;;;;4863163;29;20053;-77
2022/09/17 04:02:07;;;;;;;0.90;0.20;;;10.10;84.10;;;;;;4879973;29;20048;-77
2022/09/17 04:04:33;;;;;;;0.10;0.10;;;10.10;84.00;;;;;;4864376;29;20080;-77
2022/09/17 04:06:59;;;;;;;0.20;0.10;;;10.10;84.00;;;;;;4897097;29;20056;-77
2022/09/17 04:09:24;;;;;;;0.10;0.10;;;10.10;84.10;;;;;;4880245;29;20088;-77
2022/09/17 04:11:50;;;;;;;0.15;0.10;;;10.10;84.10;;;;;;4897282;29;20040;-77
2022/09/17 04:14:16;;;;;;;0.32;0.15;;;10.10;84.10;;;;;;4896664;29;20044;-77
2022/09/17 04:16:41;;;;;;;0.20;0.17;;;10.10;84.10;;;;;;4896923;29;20041;-77
2022/09/17 04:19:07;;;;;;;0.20;0.20;;;10.10;84.10;;;;;;4864502;29;20041;-77
2022/09/17 04:21:33;;;;;;;0.10;0.10;;;10.00;84.10;;;;;;4896825;29;20063;-76
2022/09/17 04:24:00;;;;;;;0.32;0.20;;;10.00;84.10;;;;;;4896659;29;20040;-76
2022/09/17 04:26:25;;;;;;;0.65;0.15;;;10.00;84.10;;;;;;4896407;29;20041;-77
2022/09/17 04:28:53;;;;;;;0.68;0.20;;;10.00;84.10;;;;;;4896447;29;20555;-76
2022/09/17 04:31:21;;;;;;;0.30;0.10;;;10.00;84.10;;;;;;4896866;29;20037;-77
2022/09/17 04:33:47;;;;;;;0.13;0.10;;;10.00;84.10;;;;;;4896622;29;20048;-76
2022/09/17 04:36:12;;;;;;;0.10;0.10;;;10.00;84.10;;;;;;4896592;29;20063;-77
2022/09/17 04:38:38;;;;;;;0.40;0.30;;;10.00;84.10;;;;;;4896925;29;20053;-77
2022/09/17 04:41:06;;;;;;;0.63;0.10;;;9.90;84.10;;;;;;4880244;29;20048;-76
2022/09/17 04:43:32;;;;;;;0.32;0.10;;;10.00;84.20;;;;;;4879407;29;20072;-77
2022/09/17 04:45:58;;;;;;;0.85;0.30;;;10.00;84.20;;;;;;4896810;29;20534;-77
2022/09/17 04:48:24;;;;;;;0.57;0.10;;;9.90;84.20;;;;;;4879067;29;20449;-77
2022/09/17 04:50:50;;;;;;;0.40;0.10;;;9.90;84.20;;;;;;4896111;29;20044;-76
2022/09/17 04:53:15;;;;;;;0.20;0.20;;;10.00;84.30;;;;;;4864123;29;20440;-77
2022/09/17 04:55:42;;;;;;;0.80;0.30;;;9.90;84.20;;;;;;4897569;29;20128;-76
2022/09/17 04:58:08;;;;;;;0.10;0.10;;;9.90;84.20;;;;;;4882670;29;20041;-77
2022/09/17 05:00:34;;;;;;;0.10;0.10;;;9.90;84.20;;;;;;4882783;29;20040;-76
2022/09/17 05:03:00;;;;;;;0.13;0.13;;;9.80;84.20;;;;;;4899818;29;20047;-76
2022/09/17 05:05:26;;;;;;;0.13;0.10;;;9.90;84.30;;;;;;4900100;29;20052;-77
2022/09/17 05:07:52;;;;;;;0.25;0.13;;;9.90;84.30;;;;;;4882669;29;20055;-77
2022/09/17 05:10:20;;;;;;;0.10;0.10;;;9.80;84.30;;;;;;4867998;29;20378;-77
2022/09/17 05:12:48;;;;;;;0.30;0.10;;;9.80;84.90;;;;;;4883343;29;20039;-76
2022/09/17 05:15:14;;;;;;;0.40;0.17;;;9.80;84.30;;;;;;4882624;29;20040;-77
2022/09/17 05:17:39;;;;;;;0.35;0.20;;;9.90;84.40;;;;;;4882403;29;20044;-77
2022/09/17 05:20:06;;;;;;;0.20;0.20;;;9.90;84.40;;;;;;4899243;29;20044;-77
2022/09/17 05:22:32;;;;;;;0.25;0.20;;;9.80;84.30;;;;;;4866794;29;20045;-77
2022/09/17 05:24:57;;;;;;;0.10;0.10;;;9.80;84.20;;;;;;4899296;29;20060;-77
2022/09/17 05:27:23;;;;;;;0.82;0.13;;;9.80;84.20;;;;;;4881314;29;20049;-77
2022/09/17 05:29:49;;;;;;;0.73;0.20;;;9.80;84.30;;;;;;4899169;29;20047;-76
2022/09/17 05:32:15;;;;;;;0.57;0.20;;;9.80;84.30;;;;;;4899131;29;20148;-77
2022/09/17 05:34:41;;;;;;;0.10;0.10;;;9.80;84.30;;;;;;4882144;29;20084;-76
2022/09/17 05:37:10;;;;;;;0.10;0.10;;;9.90;84.40;;;;;;4864318;29;20049;-77
2022/09/17 05:39:35;;;;;;;0.85;0.28;;;9.80;84.40;;;;;;4899150;29;20044;-76
2022/09/17 05:42:01;;;;;;;0.30;0.10;;;9.80;84.40;;;;;;4898856;29;20492;-77
2022/09/17 05:44:27;;;;;;;0.35;0.25;;;9.80;84.40;;;;;;4882336;29;20541;-78
2022/09/17 05:46:53;;;;;;;0.10;0.10;;;9.80;84.40;;;;;;4898816;29;20051;-76
2022/09/17 05:49:19;;;;;;;0.30;0.10;;;9.70;84.40;;;;;;4864706;29;20033;-76
2022/09/17 05:51:45;;;;;;;0.25;0.10;;;9.80;84.40;;;;;;4851150;29;20040;-77
2022/09/17 05:54:11;;;;;;;0.10;0.10;;;9.70;84.40;;;;;;4898868;29;20491;-76
2022/09/17 05:56:36;;;;;;;0.47;0.10;;;9.70;84.40;;;;;;4881837;29;20456;-76
2022/09/17 05:59:02;;;;;;;0.20;0.10;;;9.80;84.50;;;;;;4881756;29;20131;-77
2022/09/17 06:01:28;;;;;;;0.30;0.10;;;9.80;84.50;;;;;;4882324;29;20048;-77
2022/09/17 06:03:54;;;;;;;0.45;0.20;;;9.70;84.40;;;;;;4899041;29;20051;-77
2022/09/17 06:06:20;;;;;;;0.10;0.10;;;9.80;84.40;;;;;;4881837;29;20507;-77
2022/09/17 06:08:45;;;;;;;0.10;0.10;;;9.80;84.40;;;;;;4882418;29;20052;-77
2022/09/17 06:11:11;;;;;;;0.85;0.25;;;9.80;84.40;;;;;;4898588;29;20406;-77
2022/09/17 06:13:37;;;;;;;0.10;0.10;;;9.80;84.40;;;;;;4881957;29;20131;-77
2022/09/17 06:16:03;;;;;;;0.40;0.20;;;9.80;84.40;;;;;;4881765;29;20411;-77
2022/09/17 06:18:30;;;;;;;0.10;0.10;;;9.80;84.40;;;;;;4881399;29;20522;-78
2022/09/17 06:20:58;;;;;;;0.10;0.10;;;9.80;84.40;;;;;;4866408;29;20053;-75
2022/09/17 06:23:25;;;;;;;0.03;0.03;;;9.80;84.40;;;;;;4898515;29;20048;-75
2022/09/17 06:25:55;;;;;;;0.50;0.20;;;9.80;84.40;;;;;;4881948;29;20045;-75
2022/09/17 06:28:21;;;;;;;0.30;0.20;;;9.90;84.50;;;;;;4881964;29;20640;-75
2022/09/17 06:30:47;;;;;;;0.63;0.20;;;9.90;84.40;;;;;;4881550;29;20044;-75
2022/09/17 06:33:13;;;;;;;0.20;0.20;;;9.90;84.30;;;;;;4881629;29;20040;-75
2022/09/17 06:35:39;;;;;;;0.10;0.10;;;9.90;84.30;;;;;;4880086;29;20037;-75
2022/09/17 06:38:05;;;;;;;0.32;0.20;;;10.00;84.30;;;;;;4881398;29;20530;-75
2022/09/17 06:40:31;;;;;;;0.57;0.20;;;10.00;84.10;;;;;;4881545;29;20028;-76
2022/09/17 06:43:01;;;;;;;0.88;0.20;;;10.10;84.10;;;;;;4898411;29;20044;-77
2022/09/17 06:45:27;;;;;;;1.45;0.30;;;10.20;84.00;;;;;;4898763;29;20425;-77
2022/09/17 06:47:53;;;;;;;0.75;0.13;;;10.30;84.30;;;;;;4898590;29;20044;-77
2022/09/17 06:50:19;;;;;;;0.63;0.20;;;10.30;83.50;;;;;;4898607;29;20056;-77
2022/09/17 06:52:49;;;;;;;0.10;0.10;;;10.40;83.30;;;;;;4899267;29;20040;-77
2022/09/17 06:55:15;;;;;;;0.65;0.22;;;10.40;83.20;;;;;;4902672;29;20067;-77
2022/09/17 06:57:41;;;;;;;0.47;0.20;;;10.50;83.00;;;;;;4882436;29;20029;-77
2022/09/17 07:00:08;;;;;;;0.70;0.20;;;10.50;82.90;;;;;;4865778;29;20053;-77
2022/09/17 07:02:34;;;;;;;0.30;0.22;;;10.60;82.90;;;;;;4900003;29;20077;-77
2022/09/17 07:05:00;;;;;;;0.30;0.30;;;10.70;82.80;;;;;;4899047;29;20036;-77
2022/09/17 07:07:26;;;;;;;0.20;0.10;;;10.70;82.70;;;;;;4898652;29;20059;-77
2022/09/17 07:09:52;;;;;;;0.47;0.10;;;10.80;82.60;;;;;;4880989;29;20056;-77
2022/09/17 07:12:19;;;;;;;0.50;0.20;;;10.80;82.40;;;;;;4881006;29;20043;-77
2022/09/17 07:14:46;;;;;;;0.82;0.17;;;10.90;82.40;;;;;;4898200;29;20037;-77
2022/09/17 07:17:12;;;;;;;0.15;0.15;;;11.00;82.40;;;;;;4897951;29;20076;-77
2022/09/17 07:19:38;;;;;;;2.70;0.30;;;11.00;82.30;;;;;;4897460;29;20828;-77
2022/09/17 07:22:04;;;;;;;0.68;0.30;;;11.00;82.20;;;;;;4880638;29;20307;-77
2022/09/17 07:24:29;;;;;;;0.25;0.15;;;11.10;82.10;;;;;;4865541;29;20048;-76
2022/09/17 07:26:55;;;;;;;0.63;0.25;;;11.20;82.00;;;;;;4880858;29;20496;-77
2022/09/17 07:29:22;;;;;;;0.55;0.30;;;11.20;82.00;;;;;;4897418;29;20032;-77
2022/09/17 07:31:48;;;;;;;0.20;0.15;;;11.30;81.90;;;;;;4897280;29;20045;-77
2022/09/17 07:34:14;;;;;;;0.52;0.20;;;11.30;81.80;;;;;;4897583;29;20100;-77
2022/09/17 07:36:40;;;;;;;1.85;0.20;;;11.40;81.80;;;;;;4865006;29;20048;-76
2022/09/17 07:39:05;;;;;;;0.38;0.20;;;11.50;81.80;;;;;;4880337;29;20037;-77
2022/09/17 07:41:33;;;;;;;0.90;0.30;;;11.50;81.70;;;;;;4897334;29;20112;-77
2022/09/17 07:44:01;;;;;;;0.30;0.17;;;11.60;81.60;;;;;;4865360;29;20052;-76
2022/09/17 07:46:27;;;;;;;0.43;0.15;;;11.60;81.50;;;;;;4897285;29;20148;-76
2022/09/17 07:48:53;;;;;;;0.20;0.10;;;11.60;81.30;;;;;;4879802;29;20033;-77
2022/09/17 07:51:22;;;;;;;0.20;0.20;;;11.90;81.40;;;;;;4897291;29;20388;-77
2022/09/17 07:53:52;;;;;;;0.20;0.17;;;11.90;81.20;;;;;;4896955;29;20518;-77
2022/09/17 07:56:17;;;;;;;0.13;0.10;;;12.00;81.10;;;;;;4863627;29;20089;-77
2022/09/17 07:58:43;;;;;;;0.22;0.13;;;12.00;81.00;;;;;;4881238;29;20036;-77
2022/09/17 08:01:11;;;;;;;0.65;0.20;;;12.20;81.00;;;;;;4881929;29;20556;-78
2022/09/17 08:03:38;;;;;;;0.10;0.10;;;12.20;80.70;;;;;;4881768;29;20131;-78
2022/09/17 08:06:07;;;;;;;0.28;0.20;;;12.30;80.60;;;;;;4897745;29;20045;-76
2022/09/17 08:08:34;;;;;;;1.35;0.32;;;12.50;80.30;;;;;;4880128;29;20056;-77
2022/09/17 08:11:10;;;;;;;0.77;0.35;;;12.60;80.10;;;;;;4897241;29;20049;-76
2022/09/17 08:13:36;;;;;;;0.38;0.20;;;12.70;80.00;;;;;;4897361;29;20044;-77
2022/09/17 08:16:04;;;;;;;0.90;0.25;;;12.70;79.80;;;;;;4881667;29;20072;-77
2022/09/17 08:18:31;;;;;;;0.10;0.10;;;12.80;79.70;;;;;;4880621;29;20073;-77
2022/09/17 08:20:59;;;;;;;0.85;0.20;;;13.00;79.60;;;;;;4881538;29;20066;-77
2022/09/17 08:23:26;;;;;;;0.70;0.22;;;13.10;79.40;;;;;;4899676;29;20036;-77
2022/09/17 08:25:53;;;;;;;0.45;0.28;;;13.20;79.20;;;;;;4901603;29;20517;-78
2022/09/17 08:28:20;;;;;;;1.15;0.30;;;13.30;79.00;;;;;;4907826;29;20048;-80
2022/09/17 08:30:48;;;;;;;0.43;0.22;;;13.30;78.80;;;;;;4891626;29;20028;-80
2022/09/17 08:33:15;;;;;;;0.30;0.17;;;13.50;78.70;;;;;;4909053;29;20040;-80
2022/09/17 08:35:40;;;;;;;0.10;0.10;;;13.60;78.50;;;;;;4908557;29;20057;-80
2022/09/17 08:38:06;;;;;;;0.70;0.30;;;13.50;78.30;;;;;;4913783;29;20041;-79
2022/09/17 08:40:39;;;;;;;0.45;0.20;;;13.60;78.30;;;;;;4893076;29;20133;-79
2022/09/17 08:43:04;;;;;;;1.23;0.30;;;13.70;78.30;;;;;;4890845;29;20041;-78
2022/09/17 08:45:30;;;;;;;1.08;0.35;;;13.70;78.20;;;;;;4910612;29;20917;-79
2022/09/17 08:48:03;;;;;;;1.13;0.30;;;13.80;78.20;;;;;;4911056;29;20056;-77
2022/09/17 08:50:33;;;;;;;0.20;0.20;;;13.90;77.90;;;;;;4897841;29;20102;-78
2022/09/17 08:53:21;;;;;;;1.20;0.32;;;14.00;77.80;;;;;;4898265;29;20048;-77
2022/09/17 08:56:01;;;;;;;1.45;0.40;;;14.00;77.70;;;;;;4895039;29;20045;-77
2022/09/17 08:58:38;;;;;;;0.88;0.40;;;14.10;77.50;;;;;;4883542;29;20045;-78
2022/09/17 09:01:12;;;;;;;0.30;0.10;;;14.20;77.20;;;;;;4881689;29;20426;-76
2022/09/17 09:04:01;;;;;;;0.93;0.30;;;14.10;77.60;;;;;;4876049;29;20068;-74
2022/09/17 09:06:33;;;;;;;0.85;0.30;;;14.10;77.00;;;;;;4895816;29;20112;-74
2022/09/17 09:09:04;;;;;;;3.20;0.30;;;14.20;77.00;;;;;;4896515;29;20051;-75
2022/09/17 09:11:30;;;;;;;2.45;0.50;;;14.20;77.00;;;;;;4896293;29;20053;-75
2022/09/17 09:14:05;;;;;;;1.23;0.32;;;14.10;77.20;;;;;;4879492;29;20041;-75
2022/09/17 09:16:43;;;;;;;0.65;0.45;;;14.20;77.20;;;;;;4863752;29;20040;-75
2022/09/17 09:19:20;;;;;;;1.55;0.28;;;14.20;77.00;;;;;;4895985;29;20039;-74
2022/09/17 09:22:25;;;;;;;1.70;0.22;;;14.20;76.90;;;;;;4880114;29;20037;-75
2022/09/17 09:25:10;;;;;;;0.50;0.32;;;14.10;76.80;;;;;;4895865;29;20053;-75
2022/09/17 09:27:45;;;;;;;0.77;0.20;;;14.10;76.80;;;;;;4896204;29;20063;-75
2022/09/17 09:30:13;;;;;;;1.48;0.40;;;14.10;76.60;;;;;;4879118;29;20037;-75
2022/09/17 09:32:59;;;;;;;0.45;0.20;;;14.20;76.40;;;;;;4879441;29;20072;-74
2022/09/17 09:35:29;;;;;;;1.55;0.40;;;14.20;76.30;;;;;;4879092;29;20032;-75
2022/09/17 09:38:26;;;;;;;0.10;0.10;;;14.30;76.30;;;;;;4896520;29;20037;-75
2022/09/17 09:40:59;;;;;;;0.60;0.30;;;14.30;76.00;;;;;;4895909;29;20083;-75
2022/09/17 09:43:42;;;;;;;0.98;0.20;;;14.30;76.00;;;;;;4899124;29;20048;-73
2022/09/17 09:46:37;;;;;;;0.85;0.30;;;14.30;75.80;;;;;;4899243;29;20116;-75
2022/09/17 09:49:18;;;;;;;1.00;0.30;;;14.40;75.50;;;;;;4870375;29;20411;-74
2022/09/17 09:52:07;;;;;;;1.10;0.30;;;14.40;75.30;;;;;;4896985;29;20453;-75
2022/09/17 09:54:55;;;;;;;1.52;0.40;;;14.40;75.20;;;;;;4898595;29;20044;-75
2022/09/17 09:57:42;;;;;;;0.22;0.20;;;14.50;75.00;;;;;;4898699;29;20045;-75
2022/09/17 10:00:24;;;;;;;0.95;0.30;;;14.60;74.90;;;;;;4898980;29;20048;-75
2022/09/17 10:03:07;;;;;;;1.13;0.38;;;14.80;74.70;;;;;;4898811;29;20396;-75
2022/09/17 10:05:33;;;;;;;0.28;0.25;;;14.80;74.60;;;;;;4898571;29;20041;-75
2022/09/17 10:07:59;;;;;;;0.15;0.13;;;14.90;74.20;;;;;;4898877;29;20480;-75
2022/09/17 10:10:25;;;;;;;1.85;0.40;;;14.90;73.90;;;;;;4866410;29;20041;-75
2022/09/17 10:13:04;;;;;;;1.15;0.30;;;15.00;73.80;;;;;;4898659;29;20061;-75
2022/09/17 10:15:30;;;;;;;1.23;0.47;;;14.90;73.80;;;;;;4866428;29;20431;-75
2022/09/17 10:18:24;;;;;;;0.30;0.20;;;14.70;73.90;;;;;;4881112;29;20052;-75
2022/09/17 10:20:53;;;;;;;0.13;0.13;;;14.70;74.60;;;;;;4898469;29;20037;-76
2022/09/17 10:23:21;;;;;;;0.52;0.20;;;14.60;74.90;;;;;;4899004;29;20041;-76
2022/09/17 10:25:48;;;;;;;0.30;0.20;;;14.50;75.20;;;;;;4881609;29;20045;-75
2022/09/17 10:28:31;;;;;;;0.43;0.10;;;14.40;75.40;;;;;;4881552;29;20100;-75
2022/09/17 10:31:00;;;;;;;0.10;0.10;;;14.40;75.80;;;;;;4898790;29;20135;-75
2022/09/17 10:33:29;;;;;;;0.55;0.20;;;14.40;75.80;;;;;;4866732;29;20052;-76
2022/09/17 10:36:05;;;;;;;0.68;0.20;;;14.40;75.80;;;;;;4882114;29;20045;-75
2022/09/17 10:38:38;;;;;;;0.82;0.35;;;14.40;75.90;;;;;;4898665;29;20483;-75
2022/09/17 10:41:20;;;;;;;0.30;0.28;;;14.40;76.00;;;;;;4881218;29;20120;-75
2022/09/17 10:43:47;;;;;;;0.70;0.20;;;14.30;76.20;;;;;;4898102;29;20044;-75
2022/09/17 10:46:19;;;;;;;0.43;0.30;;;14.30;77.10;;;;;;4898376;29;20052;-74
2022/09/17 10:48:56;;;;;;;0.43;0.20;;;14.20;76.50;;;;;;4898484;29;20051;-75
2022/09/17 10:51:24;;;;;;;1.70;0.25;;;14.00;76.70;;;;;;4881453;29;20551;-75
2022/09/17 10:54:22;;;;;;;0.28;0.20;;;14.10;76.90;;;;;;4864812;29;20037;-75
2022/09/17 10:56:53;;;;;;;0.57;0.20;;;14.00;77.10;;;;;;4897819;29;20048;-75
2022/09/17 10:59:36;;;;;;;0.65;0.30;;;13.90;77.20;;;;;;4898161;29;20104;-75
2022/09/17 11:02:24;;;;;;;0.10;0.10;;;13.90;77.50;;;;;;4897977;29;20044;-74
2022/09/17 11:05:14;;;;;;;0.10;0.10;;;13.80;77.60;;;;;;4897916;29;20110;-75
2022/09/17 11:08:04;;;;;;;0.10;0.10;;;13.80;77.60;;;;;;4896160;29;20076;-75
2022/09/17 11:10:41;;;;;;;0.43;0.20;;;13.90;77.50;;;;;;4898192;29;20466;-74
2022/09/17 11:13:33;;;;;;;0.28;0.20;;;14.20;77.10;;;;;;4898364;29;20033;-75
2022/09/17 11:16:16;;;;;;;0.52;0.10;;;14.30;76.50;;;;;;4883538;29;20083;-76
2022/09/17 11:18:46;;;;;;;0.50;0.28;;;14.30;76.10;;;;;;4880710;29;20125;-75
2022/09/17 11:21:36;;;;;;;0.88;0.28;;;14.30;76.10;;;;;;4880860;29;20047;-75
2022/09/17 11:24:44;;;;;;;0.25;0.22;;;14.30;76.90;;;;;;4897976;29;20067;-75
2022/09/17 11:27:24;;;;;;;0.10;0.10;;;14.40;76.30;;;;;;4897676;29;20055;-76
2022/09/17 11:30:18;;;;;;;0.57;0.20;;;14.50;76.20;;;;;;4897633;29;20066;-75
2022/09/17 11:33:02;;;;;;;0.55;0.10;;;14.60;75.90;;;;;;4885021;29;20045;-75
2022/09/17 11:35:35;;;;;;;0.82;0.25;;;14.80;75.90;;;;;;4897158;29;20092;-74
2022/09/17 11:38:08;;;;;;;0.38;0.20;;;14.80;75.50;;;;;;4896428;29;20057;-74
2022/09/17 11:40:43;;;;;;;0.57;0.20;;;14.90;75.20;;;;;;4865688;29;20067;-75
2022/09/17 11:43:23;;;;;;;0.55;0.30;;;15.00;75.00;;;;;;4897401;29;20055;-75
2022/09/17 11:45:59;;;;;;;0.82;0.38;;;15.00;75.10;;;;;;4897261;29;20989;-74
2022/09/17 11:48:55;;;;;;;1.38;0.20;;;15.10;75.00;;;;;;4880272;29;20400;-74
2022/09/17 11:51:35;;;;;;;0.90;0.20;;;15.10;74.50;;;;;;4896802;29;20052;-75
2022/09/17 11:54:07;;;;;;;0.32;0.30;;;15.20;74.40;;;;;;4880318;29;20033;-74
2022/09/17 11:56:40;;;;;;;1.40;0.30;;;15.20;74.20;;;;;;4864593;29;20051;-74
2022/09/17 11:59:38;;;;;;;2.08;0.47;;;15.30;74.10;;;;;;4896630;29;20032;-75
2022/09/17 12:02:20;;;;;;;1.15;0.38;;;15.40;74.00;;;;;;4882963;29;20248;-74
2022/09/17 12:05:01;;;;;;;0.95;0.40;;;15.40;73.50;;;;;;4866052;29;20124;-74
2022/09/17 12:07:42;;;;;;;1.42;0.32;;;15.40;73.10;;;;;;4879856;29;20376;-73
2022/09/17 12:10:33;;;;;;;0.63;0.35;;;15.50;73.20;;;;;;4879880;29;20052;-73
2022/09/17 12:13:15;;;;;;;1.42;0.40;;;15.40;73.10;;;;;;4863058;29;20094;-72
2022/09/17 12:15:46;;;;;;;2.10;0.65;;;15.30;72.90;;;;;;4895088;29;20051;-74
2022/09/17 12:18:27;;;;;;;1.55;0.30;;;15.10;72.90;;;;;;4880078;29;20044;-74
2022/09/17 12:20:56;;;;;;;;;;;14.90;74.00;;;;;;4881745;29;20055;-73
2022/09/17 12:23:42;;;;;;;2.08;0.65;;;14.80;74.40;;;;;;4896528;29;19919;-73
2022/09/17 12:26:28;;;;;;;1.30;0.40;;;14.70;74.50;;;;;;4896793;29;20056;-73
2022/09/17 12:29:18;;;;;;;1.50;0.40;;;14.40;74.70;;;;;;4866131;29;20055;-74
2022/09/17 12:31:55;;;;;;;1.63;0.38;;;14.30;75.40;;;;;;4881987;29;20043;-73
2022/09/17 12:34:53;;;;;;;1.58;0.40;;;14.10;75.80;;;;;;4896230;29;20124;-73
2022/09/17 12:37:32;;;;;;;1.75;0.20;;;14.00;76.10;;;;;;4865722;29;20067;-74
2022/09/17 12:40:23;;;;;;;1.05;0.38;;;14.00;76.50;;;;;;4896369;29;20055;-74
2022/09/17 12:43:13;;;;;;;0.50;0.15;;;14.00;76.50;;;;;;4896540;29;20040;-74
2022/09/17 12:46:05;;;;;;;0.98;0.20;;;14.10;76.30;;;;;;4879699;29;20048;-75
2022/09/17 12:49:03;;;;;;;1.05;0.20;;;14.20;75.90;;;;;;4896759;29;20048;-74
2022/09/17 12:51:51;;;;;;;1.25;0.20;;;14.30;75.70;;;;;;4896120;29;20096;-73
2022/09/17 12:54:34;;;;;;;0.20;0.20;;;14.30;75.50;;;;;;4865310;29;20047;-73
2022/09/17 12:57:17;;;;;;;0.38;0.20;;;14.30;75.20;;;;;;4880717;29;20044;-74
2022/09/17 12:59:52;;;;;;;0.63;0.15;;;14.30;75.20;;;;;;4896195;29;20049;-74
2022/09/17 13:02:40;;;;;;;0.73;0.20;;;14.30;75.30;;;;;;4896811;29;20044;-74
2022/09/17 13:05:44;;;;;;;0.10;0.10;;;14.30;75.30;;;;;;4896207;29;20054;-75
2022/09/17 13:08:40;;;;;;;0.63;0.35;;;14.20;75.20;;;;;;4895895;29;20049;-73
2022/09/17 13:11:34;;;;;;;0.82;0.30;;;14.30;75.10;;;;;;4883579;29;20077;-73
2022/09/17 13:14:18;;;;;;;1.08;0.40;;;14.30;75.00;;;;;;4895976;29;20052;-74
2022/09/17 13:17:05;;;;;;;0.77;0.20;;;14.30;74.80;;;;;;4897193;29;20158;-74
2022/09/17 13:19:54;;;;;;;1.45;0.30;;;14.50;74.70;;;;;;4899160;29;20083;-74